Current | Forecast
Updated: 12:30 AM MSK on August 22, 2017
Observed at Adler, Georgia
Temperature 79°F
Humidity 74%
Dew Point 70°F
Wind North at 4 mph
Pressure 29.65 in (Steady)
Conditions Clear
Visibility 6.2 miles
UV N/A
Clouds
Yesterday's Maximum 90°F
Yesterday's Minimum 73°F approx.
Yesterday's Cooling Degree Days 17 approx.
Sunrise6:32 AM +04
Sunset8:11 PM +04
Moon Rise6:59 AM +04
Moon Set8:42 PM +04
Moon PhaseMoon Phase
New Moon
Raw METARMETAR URSS 212130Z 35002MPS 320V080 9999 NSC 26/21 Q1004 R06/090070 R02/////// NOSIG RMK R02/08002MPS QFE752


Monday
. High: 66° F.
Tuesday
. High: 60° F.
Wednesday
. High: 60° F.
Thursday
. High: 57° F.
Friday
. High: 59° F.
Saturday
. High: 64° F.
Sunday
. High: 62° F.
Monday
. High: 59° F.

Units: English | Metric

Find the Weather for any City, State or Zipcode, or Country:

U.S. State List | Severe Weather | Tropical Storms | Ski Conditions
United States | Canada | Central America | South America | Asia | Europe | Australia | Africa | Islands

Weather Underground

© Copyright 2017
The Weather Company, LLC